Flight Track Log - Related Links

Times and Time Zones

All times are in EDT time to prevent confusion due to time zone crossing. See the N818GM flight status page for this flight to view local times or setup timezone preferences in your user account.

Time Position Orientation Groundspeed Altitude Reporting Facility
EDT Latitude Longitude Course Direction KTS MPH feet Rate Location/Type
Sun 07:20:00 26.4254 -81.8000 North  Level FlightAware Approximate
Sun 07:21:00 26.4729 -81.8047 355° North  Level FlightAware Approximate
Sun 07:22:00 26.5205 -81.8093 355° North  Level FlightAware Approximate
Sun 07:23:00 26.5681 -81.8140 355° North  Level FlightAware Approximate
Sun 07:24:00 26.6156 -81.8187 355° North  Level FlightAware Approximate
Sun 07:25:00 26.6632 -81.8234 355° North  Level FlightAware Approximate
Sun 07:26:00 26.7107 -81.8281 355° North  Level FlightAware Approximate
Sun 07:27:00 26.7583 -81.8328 355° North  Level FlightAware Approximate
Sun 07:28:00 26.8059 -81.8375 355° North  Level FlightAware Approximate
Sun 07:28:53 26.8325 -81.8450 355° North 175 201 6,000  Level Miami Center
Sun 07:29:00 26.8534 -81.8422 355° North  Level FlightAware Approximate
Sun 07:29:53 26.8781 -81.8539 350° North 175 201 6,000  Level Miami Center
Sun 07:30:00 26.9010 -81.8469 355° North  Level FlightAware Approximate
Sun 07:30:53 26.9258 -81.8631 350° North 180 207 6,000  Level Miami Center
Sun 07:31:00 26.9485 -81.8516 355° North  Level FlightAware Approximate
Sun 07:31:53 26.9758 -81.8697 353° North 180 207 6,000  Level Miami Center
Sun 07:32:00 26.9961 -81.8564 355° North  Level FlightAware Approximate
Sun 07:32:53 27.0236 -81.8764 353° North 180 207 6,000  Level Miami Center
Sun 07:33:00 27.0437 -81.8611 355° North  Level FlightAware Approximate
Sun 07:33:53 27.0733 -81.8833 353° North 180 207 6,000  Level Miami Center
Sun 07:34:00 27.0912 -81.8658 355° North  Level FlightAware Approximate
Sun 07:34:53 27.1233 -81.8900 353° North 180 207 6,000  Level Miami Center
Sun 07:35:53 27.1711 -81.8969 353° North 180 207 6,000  Level Miami Center
Sun 07:36:53 27.2189 -81.9036 353° North 180 207 6,000  Level Miami Center
Sun 07:37:53 27.2664 -81.9103 353° North 180 207 6,000  Level Miami Center
Sun 07:38:53 27.3142 -81.9172 353° North 180 207 6,000  Level Miami Center
Sun 07:39:53 27.3619 -81.9239 353° North 180 207 6,000  Level Miami Center
Sun 07:40:53 27.4097 -81.9306 353° North 180 207 6,000  Level Miami Center
Sun 07:41:53 27.4575 -81.9375 353° North 180 207 6,000  Level Miami Center
Sun 07:42:53 27.5033 -81.9442 353° North 175 201 6,000  Level Miami Center
Sun 07:43:53 27.5489 -81.9486 355° North 170 196 6,000  Level Miami Center
Sun 07:44:53 27.5967 -81.9553 353° North 170 196 6,000  Level Miami Center
Sun 07:45:53 27.6422 -81.9644 350° North 170 196 6,000  Level Miami Center
Sun 07:46:53 27.6881 -81.9711 353° North 170 196 6,000  Level Miami Center
Sun 07:47:53 27.7358 -81.9778 353° North 170 196 6,000  Level Miami Center
Sun 07:48:53 27.7878 -81.9850 353° North 170 196 6,000 50 Level Miami Center
Sun 07:49:53 27.8311 -81.9939 350° North 175 201 6,100  Climbing Miami Center
Sun 07:50:44 27.8833 -82.0000 354° North 174 200 6,000 -57 Descending Tampa TRACON
Sun 07:51:38 27.9167 -82.0000 360° North 173 199 6,000  Level Tampa TRACON
Sun 07:52:38 27.9667 -82.0167 344° North 174 200 6,000  Level Tampa TRACON
Sun 07:53:32 28.0167 -82.0333 344° North 177 204 6,000 53 Level Tampa TRACON
Sun 07:54:32 28.0500 -82.0500 336° Northwest 173 199 6,100 50 Climbing Tampa TRACON
Sun 07:55:32 28.1000 -82.0833 330° Northwest 172 198 6,100  Level Tampa TRACON
Sun 07:56:32 28.1333 -82.1167 319° Northwest 171 197 6,100  Level Tampa TRACON
Sun 07:57:32 28.1833 -82.1333 344° North 170 196 6,100  Level Tampa TRACON
Sun 07:58:32 28.2167 -82.1667 319° Northwest 174 200 6,100  Level Tampa TRACON
Sun 07:59:32 28.2667 -82.1833 344° North 175 201 6,100  Level Tampa TRACON
Sun 08:00:32 28.3000 -82.2167 319° Northwest 175 201 6,100  Level Tampa TRACON
Sun 08:01:33 28.3500 -82.2500 330° Northwest 176 203 6,100  Level Tampa TRACON
Sun 08:02:33 28.3833 -82.2667 336° Northwest 176 203 6,100  Level Tampa TRACON
Sun 08:04:37 28.4783 -82.3281 330° Northwest 176 203 6,100  Level Jacksonville Center
Sun 08:05:38 28.5203 -82.3561 330° Northwest 174 200 6,100  Level Jacksonville Center
Sun 08:06:32 28.5558 -82.3797 330° Northwest 174 200 6,100  Level Jacksonville Center
Sun 08:07:33 28.6019 -82.4103 330° Northwest 172 198 6,100  Level Jacksonville Center
Sun 08:08:34 28.6436 -82.4361 331° Northwest 173 199 6,100  Level Jacksonville Center
Sun 08:09:40 28.6897 -82.4642 332° Northwest 175 201 6,100  Level Jacksonville Center
Sun 08:10:41 28.7317 -82.4925 329° Northwest 175 201 6,100  Level Jacksonville Center
Sun 08:11:41 28.7650 -82.5256 319° Northwest 169 194 6,100  Level Jacksonville Center
Sun 08:12:32 28.7964 -82.5561 320° Northwest 173 199 6,100  Level Jacksonville Center
Sun 08:13:43 28.8383 -82.6033 315° West 171 197 6,100  Level Jacksonville Center
Sun 08:14:32 28.8675 -82.6342 317° Northwest 168 193 6,100  Level Jacksonville Center
Sun 08:15:31 28.8947 -82.6650 315° West 168 193 6,100  Level Jacksonville Center
Sun 08:16:31 28.9303 -82.7028 317° Northwest 168 193 6,100  Level Jacksonville Center
Sun 08:17:32 28.9639 -82.7408 315° West 168 193 6,100  Level Jacksonville Center
Sun 08:18:31 28.9972 -82.7786 315° West 168 193 6,100  Level Jacksonville Center
Sun 08:19:32 29.0328 -82.8167 317° Northwest 168 193 6,100  Level Jacksonville Center
Sun 08:20:32 29.0661 -82.8522 317° Northwest 168 193 6,100  Level Jacksonville Center
Sun 08:21:32 29.0994 -82.8925 313° West 168 193 6,100  Level Jacksonville Center
Sun 08:22:31 29.1328 -82.9306 315° West 168 193 6,100  Level Jacksonville Center
Sun 08:23:31 29.1664 -82.9664 317° Northwest 168 193 6,100  Level Jacksonville Center
Sun 08:24:32 29.2017 -83.0044 317° Northwest 168 193 6,100  Level Jacksonville Center
Sun 08:25:32 29.2350 -83.0425 315° West 168 193 6,100  Level Jacksonville Center
Sun 08:26:32 29.2706 -83.0806 317° Northwest 168 193 6,100  Level Jacksonville Center
Sun 08:27:32 29.3039 -83.1164 317° Northwest 168 193 6,100  Level Jacksonville Center
Sun 08:28:32 29.3372 -83.1547 315° West 168 193 6,100  Level Jacksonville Center
Sun 08:29:32 29.3725 -83.1953 315° West 168 193 6,100  Level Jacksonville Center
Sun 08:30:32 29.4081 -83.2333 317° Northwest 173 199 6,100  Level Jacksonville Center
Sun 08:31:32 29.4414 -83.2742 313° West 173 199 6,100  Level Jacksonville Center
Sun 08:32:31 29.4767 -83.3100 319° Northwest 173 199 6,100  Level Jacksonville Center
Sun 08:33:32 29.5119 -83.3483 317° Northwest 173 199 6,100  Level Jacksonville Center
Sun 08:34:32 29.5453 -83.3892 313° West 173 199 6,100  Level Jacksonville Center
Sun 08:35:32 29.5806 -83.4300 315° West 173 199 6,100  Level Jacksonville Center
Sun 08:36:31 29.6139 -83.4658 317° Northwest 173 199 6,100  Level Jacksonville Center
Sun 08:37:32 29.6492 -83.5044 316° Northwest 173 199 6,100  Level Jacksonville Center
Sun 08:38:32 29.6825 -83.5428 315° West 173 199 6,100  Level Jacksonville Center
Sun 08:39:32 29.7178 -83.5814 316° Northwest 173 199 6,100  Level Jacksonville Center
Sun 08:40:32 29.7508 -83.6197 315° West 173 199 6,100  Level Jacksonville Center
Sun 08:41:32 29.7861 -83.6583 316° Northwest 173 199 6,100  Level Jacksonville Center
Sun 08:42:31 29.8192 -83.6944 317° Northwest 173 199 6,100  Level Jacksonville Center
Sun 08:43:32 29.8525 -83.7331 315° West 173 199 6,100  Level Jacksonville Center
Sun 08:44:32 29.8878 -83.7717 317° Northwest 173 199 6,100  Level Jacksonville Center
Sun 08:45:32 29.9208 -83.8103 315° West 173 199 6,100  Level Jacksonville Center
Sun 08:46:32 29.9519 -83.8467 315° West 173 199 6,100 -300 Level Jacksonville Center
Sun 08:47:32 29.9869 -83.8878 315° West 173 199 5,500 -550 Descending Jacksonville Center
Sun 08:48:32 30.0244 -83.9264 318° Northwest 173 199 5,000 -500 Descending Jacksonville Center
Sun 08:49:32 30.0594 -83.9678 314° West 173 199 4,500 -500 Descending Jacksonville Center
Sun 08:50:32 30.0967 -84.0114 315° West 173 199 4,000 -500 Descending Jacksonville Center
Sun 08:52:00 30.1474 -84.0660 315° West  Level FlightAware Approximate
Sun 08:59:00 30.3766 -84.3416 313° West  Level FlightAware Approximate
Sun 09:00:00 30.3833 -84.3500 313° West  Level FlightAware Approximate
Sun 09:01:00 30.3967 -84.3509 313° West  Level Estimated
Sun 09:02:00 30.3967 -84.3509 313° West  Level Estimated
Sun 09:03:00 30.3967 -84.3509 313° West  Level Estimated
Sun 09:04:00 30.3967 -84.3509 313° West  Level Estimated
Sun 09:05:00 30.3967 -84.3509 313° West  Level Estimated
Sun 09:06:00 30.3967 -84.3509 313° West  Level Estimated
Sun 09:07:00 30.3967 -84.3509 313° West  Level Estimated
Sun 09:08:00 30.3967 -84.3509 313° West  Level Estimated
Sun 09:09:00 30.3967 -84.3509 313° West  Level Estimated

Login

Don't have an account? Register now (free) for customized features, flight alerts, and more!